createdAt,value
2018-12-07T00:01:13.939Z,131.90
2018-12-07T00:03:43.813Z,137.03
2018-12-07T00:06:13.452Z,147.10
2018-12-07T00:08:43.114Z,143.83
2018-12-07T00:11:12.952Z,157.60
2018-12-07T00:13:42.611Z,145.47
2018-12-07T00:16:12.435Z,152.80
2018-12-07T00:18:41.920Z,159.07
2018-12-07T00:21:11.540Z,139.90
2018-12-07T00:23:41.721Z,169.07
2018-12-07T00:26:11.403Z,181.17
2018-12-07T00:28:40.996Z,145.50
2018-12-07T00:31:10.619Z,131.70
2018-12-07T00:33:40.459Z,168.73
2018-12-07T00:36:10.534Z,173.27
2018-12-07T00:38:40.077Z,176.63
2018-12-07T00:41:09.928Z,162.77
2018-12-07T00:43:39.622Z,169.13
2018-12-07T00:46:09.294Z,169.57
2018-12-07T00:48:38.864Z,154.57
2018-12-07T00:51:08.414Z,169.33
2018-12-07T00:53:37.968Z,126.83
2018-12-07T00:56:07.688Z,134.63
2018-12-07T00:58:37.733Z,151.73
2018-12-07T01:01:07.509Z,144.67
2018-12-07T01:03:37.144Z,143.83
2018-12-07T01:06:06.908Z,144.13
2018-12-07T01:08:36.786Z,133.97
2018-12-07T01:11:06.341Z,126.27
2018-12-07T01:13:36.301Z,133.53
2018-12-07T01:16:06.079Z,107.20
2018-12-07T01:18:35.803Z,103.90
2018-12-07T01:21:05.506Z,104.90
2018-12-07T01:23:35.638Z,115.23
2018-12-07T01:26:05.309Z,99.07
2018-12-07T01:28:34.863Z,116.10
2018-12-07T01:31:04.467Z,109.10
2018-12-07T01:33:34.039Z,108.93
2018-12-07T01:36:04.014Z,121.10
2018-12-07T01:38:33.584Z,117.10
2018-12-07T01:41:03.485Z,127.80
2018-12-07T01:43:33.402Z,121.37
2018-12-07T01:46:03.067Z,112.57
2018-12-07T01:48:32.951Z,113.77
2018-12-07T01:51:02.748Z,118.77
2018-12-07T01:53:32.412Z,109.90
2018-12-07T01:56:02.162Z,122.97
2018-12-07T01:58:32.037Z,130.20
2018-12-07T02:01:01.727Z,126.40
2018-12-07T02:03:31.490Z,102.17
2018-12-07T02:06:01.065Z,119.17
2018-12-07T02:08:30.972Z,113.60
2018-12-07T02:11:00.689Z,123.03
2018-12-07T02:13:30.313Z,108.87
2018-12-07T02:16:00.040Z,95.53
2018-12-07T02:18:29.688Z,90.17
2018-12-07T02:20:59.973Z,90.27
2018-12-07T02:23:29.840Z,90.17
2018-12-07T02:26:01.594Z,119.20
2018-12-07T02:28:31.244Z,119.33
2018-12-07T02:31:01.383Z,117.00
2018-12-07T02:33:31.088Z,115.30
2018-12-07T02:36:00.834Z,109.13
2018-12-07T02:38:30.619Z,91.10
2018-12-07T02:41:00.353Z,71.37
2018-12-07T02:43:30.162Z,68.63
2018-12-07T02:46:00.561Z,56.03
2018-12-07T02:48:30.361Z,57.90
2018-12-07T02:51:00.025Z,50.73
2018-12-07T02:53:30.074Z,53.27
2018-12-07T02:55:59.800Z,44.80
2018-12-07T02:58:29.798Z,51.23
2018-12-07T03:00:59.593Z,50.37
2018-12-07T03:03:29.286Z,43.47
2018-12-07T03:05:59.155Z,39.17
2018-12-07T03:08:28.987Z,44.77
2018-12-07T03:10:59.026Z,44.07
2018-12-07T03:13:28.772Z,40.80
2018-12-07T03:15:58.298Z,40.47
2018-12-07T03:18:33.427Z,43.13
2018-12-07T03:21:03.361Z,39.57
2018-12-07T03:23:32.911Z,45.00
2018-12-07T03:26:03.421Z,45.40
2018-12-07T03:28:33.891Z,43.73
2018-12-07T03:31:03.581Z,44.70
2018-12-07T03:33:33.579Z,45.70
2018-12-07T03:36:03.528Z,49.43
2018-12-07T03:38:33.197Z,51.93
2018-12-07T03:41:02.945Z,57.90
2018-12-07T03:43:32.500Z,47.67
2018-12-07T03:46:02.176Z,49.07
2018-12-07T03:48:31.754Z,54.13
2018-12-07T03:51:01.441Z,44.30
2018-12-07T03:53:31.705Z,41.90
2018-12-07T03:56:01.365Z,45.53
2018-12-07T03:58:30.856Z,51.80
2018-12-07T04:01:00.525Z,46.97
2018-12-07T04:03:30.034Z,55.67
2018-12-07T04:05:59.822Z,50.87
2018-12-07T04:08:29.639Z,54.87
2018-12-07T04:10:59.375Z,55.93
2018-12-07T04:13:29.179Z,52.10
2018-12-07T04:15:59.877Z,63.57
2018-12-07T04:18:29.801Z,52.17
2018-12-07T04:20:59.350Z,55.90
2018-12-07T04:23:28.931Z,56.83
2018-12-07T04:25:58.699Z,53.70
2018-12-07T04:28:28.531Z,60.87
2018-12-07T04:30:58.110Z,56.10
2018-12-07T04:33:27.932Z,61.30
2018-12-07T04:35:57.522Z,58.13
2018-12-07T04:38:27.712Z,58.13
2018-12-07T04:40:57.416Z,55.10
2018-12-07T04:43:27.528Z,52.07
2018-12-07T04:45:57.136Z,57.70
2018-12-07T04:48:26.764Z,53.50
2018-12-07T04:50:56.361Z,51.50
2018-12-07T04:53:26.330Z,55.40
2018-12-07T04:55:56.051Z,56.70
2018-12-07T04:58:25.931Z,58.03
2018-12-07T05:00:55.861Z,54.47
2018-12-07T05:03:25.442Z,57.33
2018-12-07T05:05:55.613Z,55.70
2018-12-07T05:08:25.441Z,67.57
2018-12-07T05:10:55.233Z,67.50
2018-12-07T05:13:25.332Z,67.73
2018-12-07T05:15:55.058Z,61.50
2018-12-07T05:18:24.860Z,67.67
2018-12-07T05:20:54.609Z,80.17
2018-12-07T05:23:24.148Z,79.30
2018-12-07T05:25:53.743Z,83.00
2018-12-07T05:28:23.511Z,74.33
2018-12-07T05:30:53.277Z,85.30
2018-12-07T05:33:23.036Z,75.57
2018-12-07T05:35:52.715Z,86.30
2018-12-07T05:38:22.369Z,90.40
2018-12-07T05:40:51.905Z,86.00
2018-12-07T05:43:21.759Z,98.13
2018-12-07T05:45:51.434Z,91.70
2018-12-07T05:48:23.797Z,82.67
2018-12-07T05:50:52.878Z,88.10
2018-12-07T05:53:22.500Z,82.47
2018-12-07T05:55:52.663Z,75.77
2018-12-07T05:58:22.151Z,70.97
2018-12-07T06:00:51.738Z,79.83
2018-12-07T06:03:21.282Z,83.33
2018-12-07T06:05:51.024Z,94.60
2018-12-07T06:08:21.093Z,89.87
2018-12-07T06:10:50.759Z,90.33
2018-12-07T06:13:20.528Z,91.20
2018-12-07T06:15:50.432Z,87.20
2018-12-07T06:18:20.032Z,103.50
2018-12-07T06:20:49.639Z,81.80
2018-12-07T06:23:19.565Z,85.70
2018-12-07T06:25:49.233Z,87.93
2018-12-07T06:28:18.981Z,87.47
2018-12-07T06:30:48.683Z,86.10
2018-12-07T06:33:18.425Z,81.73
2018-12-07T06:35:48.271Z,82.77
2018-12-07T06:38:17.899Z,87.70
2018-12-07T06:40:47.749Z,106.30
2018-12-07T06:43:17.730Z,103.07
2018-12-07T06:45:47.211Z,133.33
2018-12-07T06:48:17.104Z,107.97
2018-12-07T06:50:47.132Z,120.07
2018-12-07T06:53:16.850Z,84.50
2018-12-07T06:55:46.422Z,77.23
2018-12-07T06:58:16.438Z,68.43
2018-12-07T07:00:46.005Z,76.00
2018-12-07T07:03:15.732Z,74.47
2018-12-07T07:05:45.725Z,67.03
2018-12-07T07:08:15.650Z,74.87
2018-12-07T07:10:45.244Z,62.90
2018-12-07T07:13:14.871Z,82.77
2018-12-07T07:15:44.432Z,67.60
2018-12-07T07:18:14.188Z,71.33
2018-12-07T07:20:44.102Z,65.63
2018-12-07T07:23:13.685Z,62.00
2018-12-07T07:25:43.247Z,56.67
2018-12-07T07:28:13.031Z,78.13
2018-12-07T07:30:42.739Z,62.43
2018-12-07T07:33:12.616Z,51.63
2018-12-07T07:35:42.620Z,51.90
2018-12-07T07:38:12.402Z,53.83
2018-12-07T07:40:42.026Z,47.37
2018-12-07T07:43:11.666Z,56.20
2018-12-07T07:45:41.366Z,98.67
2018-12-07T07:48:11.229Z,90.43
2018-12-07T07:50:40.694Z,95.07
2018-12-07T07:53:10.423Z,92.00
2018-12-07T07:55:39.963Z,88.17
2018-12-07T07:58:09.536Z,85.67
2018-12-07T08:00:39.351Z,80.43
2018-12-07T08:03:09.359Z,85.70
2018-12-07T08:05:39.867Z,80.20
2018-12-07T08:08:09.500Z,77.10
2018-12-07T08:10:39.247Z,94.27
2018-12-07T08:13:09.300Z,79.33
2018-12-07T08:15:38.903Z,83.30
2018-12-07T08:18:08.440Z,90.73
2018-12-07T08:20:38.127Z,76.90
2018-12-07T08:23:14.518Z,76.77
2018-12-07T08:25:39.821Z,78.90
2018-12-07T08:28:09.828Z,70.80
2018-12-07T08:30:39.658Z,81.23
2018-12-07T08:33:09.327Z,68.47
2018-12-07T08:35:39.170Z,69.80
2018-12-07T08:38:09.178Z,66.97
2018-12-07T08:40:39.301Z,75.10
2018-12-07T08:43:09.094Z,69.07
2018-12-07T08:45:38.620Z,75.73
2018-12-07T08:48:08.494Z,74.97
2018-12-07T08:50:38.667Z,72.23
2018-12-07T08:53:08.322Z,65.23
2018-12-07T08:55:38.488Z,62.23
2018-12-07T08:58:08.193Z,60.90
2018-12-07T09:00:37.848Z,60.97
2018-12-07T09:03:08.005Z,67.80
2018-12-07T09:05:37.752Z,62.93
2018-12-07T09:08:14.929Z,56.43
2018-12-07T09:10:39.531Z,53.83
2018-12-07T09:13:09.719Z,59.57
2018-12-07T09:15:39.581Z,56.53
2018-12-07T09:18:09.622Z,54.80
2018-12-07T09:20:39.468Z,55.67
2018-12-07T09:23:09.525Z,62.07
2018-12-07T09:25:39.423Z,59.50
2018-12-07T09:28:09.125Z,51.60
2018-12-07T09:30:38.938Z,56.13
2018-12-07T09:33:08.720Z,58.13
2018-12-07T09:35:38.323Z,59.00
2018-12-07T09:38:13.124Z,61.60
2018-12-07T09:40:40.246Z,61.43
2018-12-07T09:43:09.944Z,54.07
2018-12-07T09:45:39.699Z,51.57
2018-12-07T09:48:10.802Z,57.37
2018-12-07T09:50:40.462Z,63.00
2018-12-07T09:53:10.059Z,59.37
2018-12-07T09:55:39.783Z,55.77
2018-12-07T09:58:10.019Z,61.70
2018-12-07T10:00:39.824Z,68.93
2018-12-07T10:03:09.498Z,61.97
2018-12-07T10:05:39.313Z,62.27
2018-12-07T10:08:09.336Z,64.47
2018-12-07T10:10:38.963Z,77.93
2018-12-07T10:13:08.567Z,69.20
2018-12-07T10:15:38.263Z,65.03
2018-12-07T10:18:08.253Z,58.80
2018-12-07T10:20:38.308Z,58.60
2018-12-07T10:23:07.905Z,63.37
2018-12-07T10:25:58.531Z,66.77
2018-12-07T10:28:28.383Z,64.63
2018-12-07T10:30:58.710Z,67.57
2018-12-07T10:33:29.089Z,83.03
2018-12-07T10:36:04.277Z,74.50
2018-12-07T10:38:34.080Z,72.93
2018-12-07T10:41:05.061Z,76.77
2018-12-07T10:43:34.790Z,83.67
2018-12-07T10:46:04.484Z,71.03
2018-12-07T10:48:34.293Z,55.10
2018-12-07T10:51:07.865Z,59.47
2018-12-07T10:53:36.218Z,56.57
2018-12-07T10:56:06.220Z,62.43
2018-12-07T10:58:36.446Z,70.57
2018-12-07T11:01:11.439Z,55.20
2018-12-07T11:03:46.067Z,65.10
2018-12-07T11:06:20.798Z,61.80
2018-12-07T11:08:55.618Z,60.70
2018-12-07T11:17:57.372Z,65.10
2018-12-07T11:20:32.231Z,51.33
2018-12-07T11:23:06.732Z,56.97
2018-12-07T11:25:41.469Z,90.77
2018-12-07T11:28:16.341Z,46.37
2018-12-07T11:30:51.222Z,47.53
2018-12-07T11:33:28.514Z,45.07
2018-12-07T11:35:58.497Z,44.53
2018-12-07T11:38:29.319Z,44.87
2018-12-07T11:40:59.491Z,45.80
2018-12-07T11:43:29.466Z,39.93
2018-12-07T11:46:00.279Z,41.10
2018-12-07T11:48:30.140Z,38.33
2018-12-07T11:51:00.075Z,36.20
2018-12-07T11:53:29.645Z,34.67
2018-12-07T11:55:59.371Z,43.63
2018-12-07T11:58:29.039Z,36.40
2018-12-07T12:00:58.572Z,38.83
2018-12-07T12:03:28.523Z,43.07
2018-12-07T12:05:58.188Z,40.20
2018-12-07T12:08:28.170Z,39.30
2018-12-07T12:10:57.793Z,35.90
2018-12-07T12:13:27.472Z,34.40
2018-12-07T12:15:57.317Z,34.67
2018-12-07T12:18:27.163Z,29.83
2018-12-07T12:20:56.800Z,32.23
2018-12-07T12:23:26.588Z,31.03
2018-12-07T12:25:56.621Z,33.53
2018-12-07T12:28:26.331Z,34.90
2018-12-07T12:30:56.226Z,37.97
2018-12-07T12:33:26.169Z,36.50
2018-12-07T12:35:55.903Z,40.63
2018-12-07T12:38:25.823Z,40.50
2018-12-07T12:40:55.905Z,36.13
2018-12-07T12:43:25.619Z,33.07
2018-12-07T12:45:55.612Z,55.80
2018-12-07T12:48:25.191Z,55.17
2018-12-07T12:50:57.669Z,43.40
2018-12-07T12:53:27.275Z,42.40
2018-12-07T12:55:57.313Z,43.07
2018-12-07T12:58:27.105Z,38.83
2018-12-07T13:00:56.844Z,52.10
2018-12-07T13:03:27.150Z,39.20
2018-12-07T13:05:57.272Z,43.40
2018-12-07T13:08:27.697Z,49.90
2018-12-07T13:10:57.637Z,37.23
2018-12-07T13:13:27.314Z,35.30
2018-12-07T13:15:57.468Z,41.33
2018-12-07T13:18:27.250Z,40.67
2018-12-07T13:20:57.467Z,38.33
2018-12-07T13:23:27.455Z,37.03
2018-12-07T13:25:57.423Z,37.13
2018-12-07T13:28:27.114Z,46.70
2018-12-07T13:30:56.869Z,42.17
2018-12-07T13:33:27.021Z,55.47
2018-12-07T13:35:57.065Z,51.13
2018-12-07T13:38:26.991Z,53.30
2018-12-07T13:40:56.985Z,48.70
2018-12-07T13:43:27.118Z,64.03
2018-12-07T13:45:57.210Z,45.83
2018-12-07T13:48:27.218Z,46.27
2018-12-07T13:50:57.382Z,60.00
2018-12-07T13:53:27.231Z,52.23
2018-12-07T13:55:57.266Z,52.90
2018-12-07T13:58:27.015Z,53.70
2018-12-07T14:00:57.238Z,43.67
2018-12-07T14:03:26.842Z,49.50
2018-12-07T14:05:56.783Z,55.17
2018-12-07T14:08:27.165Z,52.67
2018-12-07T14:10:57.168Z,65.27
2018-12-07T14:13:26.982Z,58.53
2018-12-07T14:15:56.892Z,59.60
2018-12-07T14:18:26.699Z,52.53
2018-12-07T14:20:56.717Z,62.77
2018-12-07T14:23:27.242Z,63.80
2018-12-07T14:25:57.127Z,55.83
2018-12-07T14:28:26.995Z,71.83
2018-12-07T14:30:57.168Z,74.47
2018-12-07T14:33:27.261Z,66.20
2018-12-07T14:35:57.219Z,64.27
2018-12-07T14:38:27.140Z,60.63
2018-12-07T14:40:56.978Z,54.00
2018-12-07T14:43:26.702Z,62.27
2018-12-07T14:45:56.757Z,61.87
2018-12-07T14:48:26.570Z,65.60
2018-12-07T14:50:56.720Z,58.83
2018-12-07T14:53:26.625Z,73.93
2018-12-07T14:55:56.586Z,58.10
2018-12-07T14:58:26.621Z,62.80
2018-12-07T15:00:56.642Z,64.10
2018-12-07T15:03:26.621Z,111.00
2018-12-07T15:05:57.233Z,106.27
2018-12-07T15:08:27.085Z,60.63
2018-12-07T15:10:56.685Z,67.67
2018-12-07T15:13:26.509Z,58.27
2018-12-07T15:15:56.330Z,66.57
2018-12-07T15:18:26.359Z,82.33
2018-12-07T15:20:57.015Z,62.87
2018-12-07T15:23:27.886Z,67.27
2018-12-07T15:25:58.113Z,112.60
2018-12-07T15:28:29.003Z,88.93
2018-12-07T15:30:59.197Z,106.83
2018-12-07T15:33:29.363Z,124.57
2018-12-07T15:35:59.540Z,126.13
2018-12-07T15:38:29.290Z,99.20
2018-12-07T15:40:59.001Z,98.73
2018-12-07T15:43:28.950Z,138.57
2018-12-07T15:46:00.103Z,146.23
2018-12-07T15:48:30.332Z,178.97
2018-12-07T15:51:00.992Z,122.40
2018-12-07T15:53:30.811Z,105.90
2018-12-07T15:56:00.699Z,98.13
2018-12-07T15:58:30.492Z,165.27
2018-12-07T16:01:00.579Z,132.87
2018-12-07T16:03:30.454Z,125.13
2018-12-07T16:06:00.336Z,109.47
2018-12-07T16:08:31.112Z,129.40
2018-12-07T16:11:01.111Z,149.43
2018-12-07T16:13:31.897Z,96.33
2018-12-07T16:16:01.651Z,104.90
2018-12-07T16:18:31.536Z,100.87
2018-12-07T16:21:01.758Z,92.43
2018-12-07T16:23:31.704Z,97.37
2018-12-07T16:26:01.970Z,94.70
2018-12-07T16:28:32.459Z,104.83
2018-12-07T16:31:02.738Z,123.53
2018-12-07T16:33:32.729Z,124.80
2018-12-07T16:36:02.801Z,126.80
2018-12-07T16:38:32.911Z,132.43
2018-12-07T16:41:03.073Z,132.27
2018-12-07T16:43:33.197Z,170.60
2018-12-07T16:46:03.148Z,158.53
2018-12-07T16:48:33.365Z,124.87
2018-12-07T16:51:03.676Z,129.77
2018-12-07T16:53:33.733Z,138.10
2018-12-07T16:56:03.638Z,134.20
2018-12-07T16:58:33.433Z,136.27
2018-12-07T17:01:03.600Z,145.13
2018-12-07T17:03:33.611Z,140.37
2018-12-07T17:06:03.531Z,129.47
2018-12-07T17:08:33.803Z,101.70
2018-12-07T17:11:03.648Z,111.10
2018-12-07T17:13:34.356Z,121.27
2018-12-07T17:16:04.488Z,120.33
2018-12-07T17:18:34.822Z,144.20
2018-12-07T17:21:05.014Z,131.57
2018-12-07T17:23:35.012Z,105.80
2018-12-07T17:26:05.079Z,114.83
2018-12-07T17:28:34.897Z,114.53
2018-12-07T17:31:04.846Z,112.43
2018-12-07T17:33:34.917Z,106.43
2018-12-07T17:36:05.118Z,103.07
2018-12-07T17:38:34.910Z,104.57
2018-12-07T17:41:05.002Z,108.97
2018-12-07T17:43:35.006Z,97.03
2018-12-07T17:46:06.232Z,104.87
2018-12-07T17:48:36.101Z,105.63
2018-12-07T17:51:06.478Z,120.53
2018-12-07T17:53:36.209Z,113.37
2018-12-07T17:56:06.342Z,105.33
2018-12-07T17:58:36.081Z,133.73
2018-12-07T18:01:06.133Z,125.47
2018-12-07T18:03:35.983Z,112.43
2018-12-07T18:06:05.876Z,133.73
2018-12-07T18:08:35.692Z,128.10
2018-12-07T18:11:05.649Z,115.50
2018-12-07T18:13:35.241Z,111.33
2018-12-07T18:16:05.232Z,112.43
2018-12-07T18:18:35.269Z,119.73
2018-12-07T18:21:05.268Z,140.70
2018-12-07T18:23:35.970Z,159.73
2018-12-07T18:26:06.392Z,190.77
2018-12-07T18:28:36.529Z,211.47
2018-12-07T18:31:06.557Z,213.43
2018-12-07T18:33:36.842Z,223.03
2018-12-07T18:36:07.221Z,215.73
2018-12-07T18:38:37.274Z,219.90
2018-12-07T18:41:07.070Z,239.63
2018-12-07T18:43:36.867Z,202.83
2018-12-07T18:46:07.068Z,231.53
2018-12-07T18:48:37.752Z,213.60
2018-12-07T18:51:08.234Z,209.03
2018-12-07T18:53:38.537Z,220.53
2018-12-07T18:56:08.783Z,210.57
2018-12-07T18:58:38.507Z,237.93
2018-12-07T19:01:08.534Z,233.33
2018-12-07T19:03:38.550Z,239.67
2018-12-07T19:06:08.490Z,229.30
2018-12-07T19:08:38.622Z,232.83
2018-12-07T19:11:08.628Z,228.27
2018-12-07T19:13:38.726Z,248.97
2018-12-07T19:16:08.867Z,248.43
2018-12-07T19:18:38.879Z,240.03
2018-12-07T19:21:09.071Z,226.13
2018-12-07T19:23:39.200Z,227.53
2018-12-07T19:26:09.259Z,207.33
2018-12-07T19:28:39.432Z,214.53
2018-12-07T19:31:09.606Z,205.67
2018-12-07T19:33:39.510Z,222.93
2018-12-07T19:36:09.514Z,215.07
2018-12-07T19:38:39.455Z,219.30
2018-12-07T19:41:09.573Z,187.80
2018-12-07T19:44:42.118Z,219.80
2018-12-07T19:47:12.187Z,243.53
2018-12-07T19:49:42.177Z,236.73
2018-12-07T19:52:12.620Z,214.27
2018-12-07T19:54:43.002Z,211.43
2018-12-07T19:57:12.870Z,201.07
2018-12-07T19:59:42.754Z,238.73
2018-12-07T20:02:12.530Z,232.47
2018-12-07T20:04:42.560Z,256.63
2018-12-07T20:07:12.465Z,269.93
2018-12-07T20:09:42.466Z,259.37
2018-12-07T20:12:12.482Z,261.23
2018-12-07T20:14:42.839Z,217.53
2018-12-07T20:17:12.695Z,296.60
2018-12-07T20:19:42.619Z,292.10
2018-12-07T20:22:12.382Z,268.00
2018-12-07T20:24:41.943Z,266.13
2018-12-07T20:27:12.440Z,262.80
2018-12-07T20:29:42.856Z,248.30
2018-12-07T20:35:18.158Z,266.70
2018-12-07T20:41:11.424Z,199.43
2018-12-07T20:43:41.692Z,211.47
2018-12-07T20:46:11.537Z,228.73
2018-12-07T20:48:41.582Z,235.10
2018-12-07T20:51:11.419Z,237.30
2018-12-07T20:53:41.536Z,228.07
2018-12-07T20:56:11.531Z,223.30
2018-12-07T20:58:41.312Z,201.50
2018-12-07T21:01:11.490Z,196.60
2018-12-07T21:04:50.252Z,215.73
2018-12-07T21:09:33.365Z,217.33
2018-12-07T21:14:19.020Z,231.93
2018-12-07T21:17:10.770Z,236.40
2018-12-07T21:20:15.331Z,211.83
2018-12-07T21:22:46.256Z,242.30
2018-12-07T21:25:16.246Z,203.93
2018-12-07T21:27:53.458Z,182.73
2018-12-07T21:30:57.939Z,213.33
2018-12-07T21:34:35.590Z,223.23
2018-12-07T21:37:05.701Z,252.43
2018-12-07T21:39:46.505Z,247.00
2018-12-07T21:42:18.201Z,249.77
2018-12-07T21:44:48.404Z,268.17
2018-12-07T21:48:39.351Z,277.53
2018-12-07T21:53:18.258Z,254.43
2018-12-07T21:55:48.189Z,241.13
2018-12-07T21:58:18.258Z,267.40
2018-12-07T22:00:48.420Z,330.87
2018-12-07T22:03:18.482Z,357.33
2018-12-07T22:05:48.766Z,403.20
2018-12-07T22:08:18.744Z,396.13
2018-12-07T22:10:48.868Z,324.27
2018-12-07T22:13:18.766Z,339.47
2018-12-07T22:15:48.831Z,369.90
2018-12-07T22:18:18.552Z,380.97
2018-12-07T22:20:48.647Z,357.53
2018-12-07T22:23:18.526Z,354.03
2018-12-07T22:25:48.977Z,351.90
2018-12-07T22:28:19.072Z,351.60
2018-12-07T22:30:48.892Z,365.80
2018-12-07T22:33:18.469Z,347.47
2018-12-07T22:35:48.615Z,367.23
2018-12-07T22:38:18.797Z,350.87
2018-12-07T22:40:49.095Z,353.53
2018-12-07T22:43:19.013Z,358.13
2018-12-07T22:45:48.706Z,322.43
2018-12-07T22:48:18.736Z,295.70
2018-12-07T22:50:49.266Z,301.13
2018-12-07T22:53:18.985Z,295.27
2018-12-07T22:55:48.661Z,296.83
2018-12-07T22:58:18.464Z,266.97
2018-12-07T23:00:49.450Z,213.57
2018-12-07T23:03:19.238Z,221.40
2018-12-07T23:05:49.020Z,250.13
2018-12-07T23:08:18.726Z,264.53
2018-12-07T23:10:48.450Z,305.83
2018-12-07T23:13:18.015Z,368.00
2018-12-07T23:15:47.636Z,352.07
2018-12-07T23:18:17.369Z,358.40
2018-12-07T23:20:47.671Z,344.13
2018-12-07T23:23:17.656Z,352.23
2018-12-07T23:25:47.341Z,340.10
2018-12-07T23:28:19.500Z,334.50
2018-12-07T23:30:49.028Z,350.50
2018-12-07T23:33:18.925Z,318.70
2018-12-07T23:35:48.556Z,296.73
2018-12-07T23:38:18.356Z,265.13
2018-12-07T23:41:02.749Z,210.87
2018-12-07T23:43:32.576Z,186.40
2018-12-07T23:46:02.380Z,165.03
2018-12-07T23:48:32.193Z,157.03
2018-12-07T23:51:02.195Z,162.83
2018-12-07T23:53:31.973Z,159.17
2018-12-07T23:56:01.585Z,181.93
2018-12-07T23:58:31.462Z,237.93
